This is the latest recevied weather packets stored in our database for station/object NK7I. If no packets are shown the sender has not sent any weather packets the latest 10 day(s).
| Time | Temp. | Humidity | Pressure | Rain* | Wind** | Luminosity | Snow |
|---|---|---|---|---|---|---|---|
| 1777695683 | 15.56° C | 46% | 1014.5 hPa | 0 mm | - | 0 W/m² | - |
| 1777695382 | 15.56° C | 45% | 1014.5 hPa | 0 mm | - | 0 W/m² | - |
| 1777695082 | 15.56° C | 44% | 1014.5 hPa | 0 mm | - | 0 W/m² | - |
| 1777694783 | 16.11° C | 46% | 1014.4 hPa | 0 mm | - | 0 W/m² | - |
| 1777694482 | 16.11° C | 44% | 1014.4 hPa | 0 mm | - | 0 W/m² | - |
| 1777694183 | 16.67° C | 44% | 1014.4 hPa | 0 mm | - | 0 W/m² | - |
| 1777693883 | 16.67° C | 42% | 1014.3 hPa | 0 mm | - | 0 W/m² | - |
| 1777693582 | 17.22° C | 44% | 1014.3 hPa | 0 mm | - | 0 W/m² | - |
| 1777693282 | 17.22° C | 43% | 1014.3 hPa | 0 mm | - | 0 W/m² | - |
| 1777692982 | 17.22° C | 42% | 1014.2 hPa | 0 mm | - | 0 W/m² | - |
| 1777692683 | 17.78° C | 42% | 1014.2 hPa | 0 mm | - | 0 W/m² | - |
| 1777692382 | 17.78° C | 42% | 1014.1 hPa | 0 mm | - | 0 W/m² | - |
| 1777692082 | 18.33° C | 40% | 1014 hPa | 0 mm | - | 0 W/m² | - |
| 1777691783 | 18.89° C | 38% | 1013.9 hPa | 0 mm | - | 0 W/m² | - |
| 1777691482 | 18.89° C | 37% | 1013.7 hPa | 0 mm | - | 0 W/m² | - |
| 1777691182 | 19.44° C | 38% | 1013.8 hPa | 0 mm | - | 0 W/m² | - |
| 1777690882 | 19.44° C | 35% | 1013.7 hPa | 0 mm | - | 0 W/m² | - |
| 1777690582 | 20° C | 36% | 1013.6 hPa | 0 mm | - | 5 W/m² | - |
| 1777690282 | 20° C | 35% | 1013.5 hPa | 0 mm | - | 9 W/m² | - |
| 1777689983 | 20° C | 33% | 1013.5 hPa | 0 mm | - | 16 W/m² | - |
| 1777689683 | 20.56° C | 34% | 1013.4 hPa | 0 mm | - | 23 W/m² | - |
| 1777689383 | 20.56° C | 32% | 1013.5 hPa | 0 mm | - | 33 W/m² | - |
| 1777689082 | 20.56° C | 32% | 1013.4 hPa | 0 mm | - | 42 W/m² | - |
| 1777688782 | 21.11° C | 32% | 1013.3 hPa | 0 mm | - | 47 W/m² | - |
| 1777688483 | 21.11° C | 32% | 1013.3 hPa | 0 mm | - | 51 W/m² | - |
* Rain latest hour (hover to see other rain measurements)
** Current wind speed in m/s (hover to see current wind gust speed)